createdAt,value
2018-09-01T00:01:17.890Z,3.40
2018-09-01T00:03:47.511Z,4.37
2018-09-01T00:06:16.686Z,5.03
2018-09-01T00:08:46.121Z,3.50
2018-09-01T00:11:15.532Z,4.23
2018-09-01T00:13:44.804Z,4.00
2018-09-01T00:16:14.206Z,4.13
2018-09-01T00:18:43.423Z,4.93
2018-09-01T00:21:12.915Z,4.07
2018-09-01T00:23:42.437Z,3.60
2018-09-01T00:26:11.831Z,3.63
2018-09-01T00:28:41.548Z,4.23
2018-09-01T00:31:10.987Z,3.63
2018-09-01T00:33:40.474Z,3.73
2018-09-01T00:36:09.960Z,4.13
2018-09-01T00:38:44.352Z,4.27
2018-09-01T00:41:13.931Z,4.20
2018-09-01T00:43:43.270Z,3.03
2018-09-01T00:46:12.624Z,3.17
2018-09-01T00:48:42.057Z,3.40
2018-09-01T00:51:11.364Z,4.50
2018-09-01T00:53:41.359Z,3.30
2018-09-01T00:56:10.810Z,3.30
2018-09-01T00:58:40.251Z,3.33
2018-09-01T01:01:09.856Z,3.57
2018-09-01T01:03:39.213Z,3.63
2018-09-01T01:06:09.459Z,4.70
2018-09-01T01:08:38.964Z,3.57
2018-09-01T01:11:09.346Z,4.07
2018-09-01T01:13:38.761Z,3.50
2018-09-01T01:16:08.275Z,3.40
2018-09-01T01:18:37.687Z,3.80
2018-09-01T01:21:07.016Z,3.57
2018-09-01T01:23:36.644Z,3.73
2018-09-01T01:26:05.940Z,3.93
2018-09-01T01:28:35.002Z,4.43
2018-09-01T01:31:04.225Z,3.40
2018-09-01T01:33:33.674Z,4.20
2018-09-01T01:36:03.292Z,3.63
2018-09-01T01:38:32.471Z,3.23
2018-09-01T01:41:01.710Z,3.50
2018-09-01T01:43:31.330Z,3.17
2018-09-01T01:46:00.764Z,3.33
2018-09-01T01:48:30.315Z,3.90
2018-09-01T01:50:59.758Z,3.77
2018-09-01T01:53:29.309Z,3.73
2018-09-01T01:55:59.070Z,3.47
2018-09-01T01:58:28.740Z,3.50
2018-09-01T02:00:58.329Z,3.20
2018-09-01T02:03:27.767Z,3.27
2018-09-01T02:05:57.058Z,4.13
2018-09-01T02:08:26.365Z,4.33
2018-09-01T02:10:55.859Z,4.53
2018-09-01T02:13:25.381Z,6.13
2018-09-01T02:15:54.802Z,3.40
2018-09-01T02:18:24.396Z,3.50
2018-09-01T02:20:53.957Z,3.60
2018-09-01T02:23:23.439Z,4.10
2018-09-01T02:25:52.920Z,3.60
2018-09-01T02:28:22.371Z,3.57
2018-09-01T02:30:51.897Z,4.10
2018-09-01T02:33:21.465Z,3.23
2018-09-01T02:35:50.932Z,3.63
2018-09-01T02:38:20.337Z,4.37
2018-09-01T02:40:49.854Z,3.77
2018-09-01T02:43:19.339Z,3.50
2018-09-01T02:45:48.601Z,4.87
2018-09-01T02:48:18.146Z,3.77
2018-09-01T02:50:47.537Z,3.40
2018-09-01T02:53:17.288Z,3.80
2018-09-01T02:55:46.649Z,3.57
2018-09-01T02:58:16.019Z,2.87
2018-09-01T03:00:45.617Z,3.53
2018-09-01T03:03:14.822Z,4.57
2018-09-01T03:05:44.475Z,3.37
2018-09-01T03:08:13.998Z,3.40
2018-09-01T03:10:43.169Z,4.10
2018-09-01T03:13:12.480Z,3.30
2018-09-01T03:15:41.861Z,3.30
2018-09-01T03:18:11.460Z,3.03
2018-09-01T03:20:40.894Z,3.23
2018-09-01T03:23:10.194Z,3.63
2018-09-01T03:25:39.600Z,3.60
2018-09-01T03:28:08.918Z,3.07
2018-09-01T03:30:38.113Z,3.20
2018-09-01T03:33:07.671Z,3.90
2018-09-01T03:35:37.094Z,2.93
2018-09-01T03:38:06.520Z,3.23
2018-09-01T03:40:36.094Z,4.30
2018-09-01T03:43:05.170Z,2.83
2018-09-01T03:45:34.595Z,3.30
2018-09-01T03:48:04.316Z,4.20
2018-09-01T03:50:33.785Z,3.03
2018-09-01T03:53:03.193Z,3.50
2018-09-01T03:55:32.491Z,3.00
2018-09-01T03:58:02.135Z,3.23
2018-09-01T04:00:31.773Z,3.07
2018-09-01T04:03:01.393Z,3.33
2018-09-01T04:05:30.876Z,3.43
2018-09-01T04:08:00.431Z,3.63
2018-09-01T04:10:30.049Z,3.17
2018-09-01T04:12:59.601Z,2.60
2018-09-01T04:15:29.070Z,3.33
2018-09-01T04:17:58.447Z,3.80
2018-09-01T04:20:27.788Z,3.37
2018-09-01T04:22:57.135Z,3.33
2018-09-01T04:25:26.632Z,3.23
2018-09-01T04:27:56.209Z,3.20
2018-09-01T04:30:25.633Z,3.03
2018-09-01T04:32:55.111Z,3.33
2018-09-01T04:35:24.672Z,3.17
2018-09-01T04:37:54.170Z,3.20
2018-09-01T04:40:23.418Z,3.23
2018-09-01T04:42:53.111Z,3.03
2018-09-01T04:45:23.421Z,3.07
2018-09-01T04:47:52.905Z,3.13
2018-09-01T04:50:22.324Z,3.60
2018-09-01T04:52:51.798Z,3.03
2018-09-01T04:55:21.114Z,3.73
2018-09-01T04:57:50.604Z,2.80
2018-09-01T05:00:22.654Z,3.03
2018-09-01T05:02:54.080Z,2.93
2018-09-01T05:05:23.481Z,3.20
2018-09-01T05:07:52.992Z,3.07
2018-09-01T05:10:22.478Z,3.07
2018-09-01T05:12:51.815Z,2.87
2018-09-01T05:15:21.436Z,2.70
2018-09-01T05:17:50.902Z,3.37
2018-09-01T05:20:20.392Z,3.27
2018-09-01T05:22:49.799Z,2.83
2018-09-01T05:25:19.353Z,2.80
2018-09-01T05:27:48.898Z,3.43
2018-09-01T05:30:19.525Z,2.90
2018-09-01T05:32:48.851Z,2.30
2018-09-01T05:35:18.389Z,2.93
2018-09-01T05:37:47.912Z,2.40
2018-09-01T05:40:17.716Z,3.03
2018-09-01T05:42:47.188Z,2.73
2018-09-01T05:45:17.008Z,2.97
2018-09-01T05:47:46.564Z,2.67
2018-09-01T05:50:16.804Z,2.30
2018-09-01T05:52:46.306Z,2.57
2018-09-01T05:55:15.867Z,3.27
2018-09-01T05:57:45.434Z,2.37
2018-09-01T06:00:19.184Z,4.17
2018-09-01T06:02:49.046Z,2.30
2018-09-01T06:05:19.266Z,2.60
2018-09-01T06:07:48.975Z,2.90
2018-09-01T06:10:18.469Z,1.97
2018-09-01T06:12:47.971Z,2.53
2018-09-01T06:15:17.592Z,2.40
2018-09-01T06:17:47.242Z,2.67
2018-09-01T06:20:17.227Z,2.10
2018-09-01T06:22:46.777Z,2.37
2018-09-01T06:25:16.385Z,1.90
2018-09-01T06:27:49.136Z,2.00
2018-09-01T06:30:22.658Z,2.03
2018-09-01T06:32:52.287Z,2.33
2018-09-01T06:35:21.699Z,1.60
2018-09-01T06:37:50.981Z,2.03
2018-09-01T06:40:20.406Z,2.90
2018-09-01T06:42:49.724Z,2.43
2018-09-01T06:45:19.282Z,1.90
2018-09-01T06:47:48.984Z,1.83
2018-09-01T06:50:18.997Z,2.33
2018-09-01T06:52:49.219Z,2.40
2018-09-01T06:55:18.764Z,3.30
2018-09-01T06:57:48.422Z,1.50
2018-09-01T07:00:22.278Z,1.53
2018-09-01T07:03:06.423Z,3.30
2018-09-01T07:05:35.881Z,1.90
2018-09-01T07:08:06.176Z,1.40
2018-09-01T07:10:35.221Z,1.23
2018-09-01T07:13:04.675Z,1.33
2018-09-01T07:15:33.747Z,2.20
2018-09-01T07:18:03.083Z,2.00
2018-09-01T07:20:32.669Z,1.20
2018-09-01T07:23:01.934Z,1.40
2018-09-01T07:25:31.280Z,0.83
2018-09-01T07:28:00.693Z,3.43
2018-09-01T07:30:30.087Z,0.90
2018-09-01T07:32:59.481Z,0.80
2018-09-01T07:35:29.145Z,1.07
2018-09-01T07:37:59.057Z,1.70
2018-09-01T07:40:29.960Z,1.27
2018-09-01T07:43:00.018Z,1.10
2018-09-01T07:45:30.987Z,0.70
2018-09-01T07:48:05.398Z,1.30
2018-09-01T07:50:34.526Z,0.80
2018-09-01T07:53:04.129Z,2.50
2018-09-01T07:55:33.134Z,1.57
2018-09-01T07:58:02.426Z,1.57
2018-09-01T08:00:31.940Z,0.70
2018-09-01T08:03:01.510Z,0.93
2018-09-01T08:05:31.025Z,0.70
2018-09-01T08:08:00.643Z,1.40
2018-09-01T08:10:30.124Z,0.80
2018-09-01T08:12:59.659Z,0.80
2018-09-01T08:15:29.113Z,0.70
2018-09-01T08:17:58.470Z,0.77
2018-09-01T08:20:28.059Z,1.00
2018-09-01T08:23:06.099Z,1.07
2018-09-01T08:25:35.316Z,2.63
2018-09-01T08:28:08.482Z,0.73
2018-09-01T08:30:37.914Z,0.93
2018-09-01T08:33:07.319Z,1.50
2018-09-01T08:35:36.830Z,1.17
2018-09-01T08:38:06.235Z,1.50
2018-09-01T08:40:35.346Z,0.80
2018-09-01T08:43:04.844Z,0.70
2018-09-01T08:45:34.973Z,1.17
2018-09-01T08:48:04.406Z,0.93
2018-09-01T08:50:34.123Z,0.77
2018-09-01T08:53:03.777Z,0.93
2018-09-01T08:55:33.208Z,0.63
2018-09-01T08:58:02.537Z,0.77
2018-09-01T09:00:32.095Z,1.03
2018-09-01T09:03:01.609Z,2.37
2018-09-01T09:05:30.976Z,0.60
2018-09-01T09:08:00.494Z,1.10
2018-09-01T09:10:30.022Z,0.80
2018-09-01T09:12:59.897Z,0.60
2018-09-01T09:15:29.381Z,0.63
2018-09-01T09:17:58.745Z,0.83
2018-09-01T09:20:28.051Z,0.70
2018-09-01T09:22:57.571Z,0.50
2018-09-01T09:25:27.028Z,1.43
2018-09-01T09:27:56.592Z,0.50
2018-09-01T09:30:26.169Z,0.97
2018-09-01T09:32:55.779Z,0.63
2018-09-01T09:35:25.144Z,0.50
2018-09-01T09:37:54.657Z,0.93
2018-09-01T09:40:24.204Z,1.43
2018-09-01T09:42:54.253Z,1.73
2018-09-01T09:45:23.695Z,0.70
2018-09-01T09:47:52.941Z,0.63
2018-09-01T09:50:22.405Z,1.70
2018-09-01T09:52:51.877Z,2.73
2018-09-01T09:55:21.447Z,0.87
2018-09-01T09:57:51.176Z,0.50
2018-09-01T10:00:25.835Z,0.57
2018-09-01T10:02:55.536Z,2.03
2018-09-01T10:05:25.154Z,0.70
2018-09-01T10:07:54.543Z,2.70
2018-09-01T10:10:24.201Z,0.67
2018-09-01T10:12:53.898Z,0.80
2018-09-01T10:15:23.665Z,0.90
2018-09-01T10:17:53.100Z,0.90
2018-09-01T10:20:22.845Z,1.63
2018-09-01T10:22:52.217Z,0.63
2018-09-01T10:25:21.712Z,0.80
2018-09-01T10:27:51.256Z,1.30
2018-09-01T10:30:20.519Z,1.60
2018-09-01T10:32:49.916Z,0.70
2018-09-01T10:35:19.427Z,3.10
2018-09-01T10:37:49.041Z,1.60
2018-09-01T10:40:18.738Z,0.77
2018-09-01T10:42:48.418Z,1.27
2018-09-01T10:45:18.049Z,0.70
2018-09-01T10:47:47.630Z,0.67
2018-09-01T10:50:17.232Z,0.60
2018-09-01T10:52:46.727Z,0.70
2018-09-01T10:55:16.240Z,0.57
2018-09-01T10:57:45.770Z,0.70
2018-09-01T11:00:18.416Z,1.17
2018-09-01T11:02:48.332Z,0.73
2018-09-01T11:05:17.898Z,0.60
2018-09-01T11:07:47.315Z,0.97
2018-09-01T11:10:16.903Z,2.33
2018-09-01T11:12:46.289Z,2.40
2018-09-01T11:15:16.640Z,1.00
2018-09-01T11:17:46.300Z,0.90
2018-09-01T11:20:16.019Z,1.27
2018-09-01T11:22:45.611Z,1.33
2018-09-01T11:25:15.239Z,1.13
2018-09-01T11:27:44.680Z,1.47
2018-09-01T11:30:14.773Z,1.30
2018-09-01T11:32:44.318Z,0.67
2018-09-01T11:35:14.045Z,1.07
2018-09-01T11:37:43.645Z,0.70
2018-09-01T11:40:13.145Z,1.17
2018-09-01T11:42:42.765Z,1.33
2018-09-01T11:45:13.507Z,0.53
2018-09-01T11:47:43.856Z,1.07
2018-09-01T11:50:13.224Z,0.67
2018-09-01T11:52:42.793Z,0.83
2018-09-01T11:55:12.208Z,0.90
2018-09-01T11:57:41.582Z,0.80
2018-09-01T12:00:11.008Z,1.70
2018-09-01T12:02:40.419Z,0.90
2018-09-01T12:05:10.090Z,1.23
2018-09-01T12:07:39.509Z,0.70
2018-09-01T12:10:09.466Z,0.70
2018-09-01T12:12:39.035Z,0.87
2018-09-01T12:15:08.507Z,1.27
2018-09-01T12:17:39.721Z,0.97
2018-09-01T12:20:09.340Z,0.93
2018-09-01T12:22:38.906Z,1.67
2018-09-01T12:25:08.488Z,1.53
2018-09-01T12:27:37.722Z,1.67
2018-09-01T12:30:07.423Z,1.20
2018-09-01T12:32:36.976Z,1.47
2018-09-01T12:35:06.541Z,0.60
2018-09-01T12:37:35.996Z,0.97
2018-09-01T12:40:05.694Z,1.67
2018-09-01T12:42:35.264Z,1.17
2018-09-01T12:45:07.523Z,1.17
2018-09-01T12:47:37.173Z,0.70
2018-09-01T12:50:06.809Z,0.87
2018-09-01T12:52:36.320Z,1.00
2018-09-01T12:55:05.700Z,1.23
2018-09-01T12:57:34.762Z,0.67
2018-09-01T13:00:04.164Z,0.83
2018-09-01T13:02:33.543Z,1.00
2018-09-01T13:05:02.877Z,0.83
2018-09-01T13:07:32.302Z,0.60
2018-09-01T13:10:01.806Z,0.83
2018-09-01T13:12:31.173Z,1.37
2018-09-01T13:15:00.464Z,0.90
2018-09-01T13:17:29.876Z,0.57
2018-09-01T13:19:59.213Z,0.80
2018-09-01T13:22:28.794Z,1.47
2018-09-01T13:24:58.072Z,1.17
2018-09-01T13:27:27.672Z,0.77
2018-09-01T13:29:57.166Z,1.10
2018-09-01T13:32:26.457Z,1.27
2018-09-01T13:34:55.939Z,1.20
2018-09-01T13:37:26.438Z,1.30
2018-09-01T13:39:56.152Z,0.93
2018-09-01T13:42:25.714Z,0.87
2018-09-01T13:44:55.332Z,1.10
2018-09-01T13:47:25.541Z,0.80
2018-09-01T13:49:55.868Z,0.80
2018-09-01T13:52:25.356Z,1.80
2018-09-01T13:54:54.815Z,0.60
2018-09-01T13:57:24.342Z,1.40
2018-09-01T13:59:53.913Z,0.97
2018-09-01T14:02:23.523Z,1.03
2018-09-01T14:04:52.978Z,0.60
2018-09-01T14:07:22.385Z,1.40
2018-09-01T14:09:51.671Z,1.57
2018-09-01T14:12:21.309Z,1.93
2018-09-01T14:14:52.209Z,1.20
2018-09-01T14:17:21.596Z,1.00
2018-09-01T14:19:51.155Z,0.70
2018-09-01T14:22:20.603Z,2.03
2018-09-01T14:24:50.227Z,1.30
2018-09-01T14:27:20.228Z,0.93
2018-09-01T14:29:49.973Z,0.60
2018-09-01T14:32:20.431Z,0.67
2018-09-01T14:34:49.862Z,0.80
2018-09-01T14:37:19.334Z,0.90
2018-09-01T14:39:48.884Z,1.00
2018-09-01T14:42:18.470Z,0.83
2018-09-01T14:44:56.165Z,0.60
2018-09-01T14:47:25.755Z,0.80
2018-09-01T14:49:55.176Z,2.60
2018-09-01T14:52:24.504Z,0.80
2018-09-01T14:55:01.179Z,0.77
2018-09-01T14:57:30.843Z,1.03
2018-09-01T15:00:00.314Z,1.57
2018-09-01T15:02:30.846Z,1.37
2018-09-01T15:05:00.387Z,1.17
2018-09-01T15:07:29.813Z,1.73
2018-09-01T15:09:59.566Z,2.13
2018-09-01T15:12:29.396Z,1.50
2018-09-01T15:14:59.215Z,1.23
2018-09-01T15:17:28.966Z,0.80
2018-09-01T15:19:58.395Z,1.73
2018-09-01T15:22:28.100Z,1.03
2018-09-01T15:24:58.304Z,1.73
2018-09-01T15:27:27.794Z,1.00
2018-09-01T15:30:14.536Z,1.37
2018-09-01T15:32:44.133Z,1.10
2018-09-01T15:35:13.435Z,1.17
2018-09-01T15:37:42.826Z,2.03
2018-09-01T15:40:12.254Z,0.90
2018-09-01T15:42:42.122Z,0.83
2018-09-01T15:45:11.667Z,0.80
2018-09-01T15:47:41.298Z,0.80
2018-09-01T15:50:10.455Z,0.93
2018-09-01T15:52:39.996Z,1.20
2018-09-01T15:55:09.838Z,1.13
2018-09-01T15:57:39.289Z,0.93
2018-09-01T16:00:09.144Z,1.10
2018-09-01T16:02:38.817Z,2.00
2018-09-01T16:05:08.299Z,0.70
2018-09-01T16:07:37.973Z,1.10
2018-09-01T16:10:08.067Z,0.80
2018-09-01T16:12:37.701Z,1.17
2018-09-01T16:15:07.176Z,1.67
2018-09-01T16:17:37.097Z,1.37
2018-09-01T16:20:07.159Z,1.40
2018-09-01T16:22:36.769Z,0.80
2018-09-01T16:25:06.125Z,1.73
2018-09-01T16:27:35.910Z,3.17
2018-09-01T16:30:05.640Z,0.67
2018-09-01T16:32:35.013Z,1.03
2018-09-01T16:35:04.615Z,1.77
2018-09-01T16:37:33.651Z,0.70
2018-09-01T16:40:02.955Z,0.67
2018-09-01T16:42:32.548Z,1.20
2018-09-01T16:45:02.000Z,3.23
2018-09-01T16:47:31.605Z,0.70
2018-09-01T16:50:01.301Z,1.63
2018-09-01T16:52:30.841Z,1.17
2018-09-01T16:55:00.435Z,1.60
2018-09-01T16:57:29.895Z,0.80
2018-09-01T16:59:59.491Z,0.93
2018-09-01T17:02:29.225Z,2.87
2018-09-01T17:04:58.788Z,0.83
2018-09-01T17:07:28.357Z,1.20
2018-09-01T17:09:58.418Z,0.80
2018-09-01T17:12:28.073Z,0.80
2018-09-01T17:14:57.657Z,0.63
2018-09-01T17:17:27.193Z,1.00
2018-09-01T17:19:57.287Z,0.93
2018-09-01T17:22:26.770Z,1.00
2018-09-01T17:24:56.377Z,0.97
2018-09-01T17:27:25.783Z,1.03
2018-09-01T17:29:55.306Z,0.90
2018-09-01T17:32:24.873Z,1.37
2018-09-01T17:34:54.695Z,1.07
2018-09-01T17:37:24.239Z,1.63
2018-09-01T17:39:53.798Z,0.70
2018-09-01T17:42:23.955Z,1.10
2018-09-01T17:44:53.824Z,0.60
2018-09-01T17:47:23.306Z,1.00
2018-09-01T17:52:21.601Z,1.23
2018-09-01T17:54:51.108Z,1.20
2018-09-01T17:57:20.687Z,1.17
2018-09-01T17:59:50.282Z,1.90
2018-09-01T18:02:20.334Z,1.33
2018-09-01T18:04:49.963Z,1.37
2018-09-01T18:07:19.452Z,1.20
2018-09-01T18:09:49.297Z,1.03
2018-09-01T18:12:18.693Z,1.33
2018-09-01T18:14:49.703Z,1.13
2018-09-01T18:17:19.438Z,2.20
2018-09-01T18:19:48.953Z,1.37
2018-09-01T18:22:18.474Z,1.57
2018-09-01T18:24:47.974Z,1.60
2018-09-01T18:27:17.523Z,1.40
2018-09-01T18:29:46.778Z,2.10
2018-09-01T18:32:16.297Z,1.40
2018-09-01T18:34:45.684Z,1.43
2018-09-01T18:37:15.243Z,1.53
2018-09-01T18:39:45.028Z,1.10
2018-09-01T18:42:14.601Z,1.87
2018-09-01T18:44:44.108Z,2.20
2018-09-01T18:47:13.604Z,1.20
2018-09-01T18:49:43.113Z,1.37
2018-09-01T18:52:12.569Z,1.33
2018-09-01T18:54:42.083Z,1.30
2018-09-01T18:57:11.886Z,1.43
2018-09-01T18:59:41.458Z,1.20
2018-09-01T19:02:10.791Z,2.40
2018-09-01T19:04:40.848Z,1.20
2018-09-01T19:07:10.757Z,1.27
2018-09-01T19:09:40.156Z,1.60
2018-09-01T19:12:10.722Z,2.10
2018-09-01T19:14:40.338Z,2.07
2018-09-01T19:17:09.898Z,1.53
2018-09-01T19:19:39.378Z,1.97
2018-09-01T19:22:08.811Z,1.60
2018-09-01T19:27:37.625Z,2.70
2018-09-01T19:30:07.345Z,1.07
2018-09-01T19:32:37.156Z,1.40
2018-09-01T19:35:06.810Z,1.40
2018-09-01T19:37:35.913Z,3.47
2018-09-01T19:40:05.218Z,2.33
2018-09-01T19:42:34.348Z,1.90
2018-09-01T19:45:03.998Z,2.20
2018-09-01T19:47:33.345Z,1.13
2018-09-01T19:50:02.933Z,2.93
2018-09-01T19:52:32.393Z,1.63
2018-09-01T19:55:01.795Z,1.30
2018-09-01T19:57:31.364Z,1.10
2018-09-01T20:00:01.021Z,1.63
2018-09-01T20:02:30.626Z,2.00
2018-09-01T20:05:00.172Z,1.43
2018-09-01T20:07:29.703Z,1.83
2018-09-01T20:09:59.112Z,1.90
2018-09-01T20:12:28.788Z,1.70
2018-09-01T20:14:58.107Z,1.40
2018-09-01T20:17:27.608Z,2.77
2018-09-01T20:19:57.123Z,1.40
2018-09-01T20:22:27.332Z,2.00
2018-09-01T20:24:57.000Z,2.60
2018-09-01T20:27:26.542Z,1.30
2018-09-01T20:29:58.932Z,1.93
2018-09-01T20:32:28.560Z,1.73
2018-09-01T20:35:03.537Z,1.60
2018-09-01T20:37:32.941Z,1.90
2018-09-01T20:40:02.976Z,1.40
2018-09-01T20:42:32.474Z,1.40
2018-09-01T20:45:02.006Z,1.00
2018-09-01T20:47:31.637Z,0.83
2018-09-01T20:50:01.210Z,2.10
2018-09-01T20:52:31.402Z,1.60
2018-09-01T20:55:00.994Z,1.57
2018-09-01T20:57:30.810Z,1.13
2018-09-01T21:00:01.149Z,1.63
2018-09-01T21:02:30.905Z,0.90
2018-09-01T21:05:00.642Z,1.47
2018-09-01T21:07:30.080Z,1.20
2018-09-01T21:09:59.935Z,1.40
2018-09-01T21:12:30.098Z,2.17
2018-09-01T21:14:59.693Z,2.20
2018-09-01T21:17:31.814Z,1.70
2018-09-01T21:20:01.597Z,1.13
2018-09-01T21:22:34.302Z,3.47
2018-09-01T21:25:04.026Z,1.40
2018-09-01T21:27:33.773Z,1.77
2018-09-01T21:30:03.545Z,1.40
2018-09-01T21:32:32.783Z,1.57
2018-09-01T21:35:02.247Z,1.27
2018-09-01T21:37:31.815Z,1.40
2018-09-01T21:40:01.263Z,1.10
2018-09-01T21:42:30.853Z,1.53
2018-09-01T21:45:00.571Z,1.73
2018-09-01T21:47:30.131Z,3.07
2018-09-01T21:49:59.520Z,2.77
2018-09-01T21:52:29.298Z,1.43
2018-09-01T21:54:59.112Z,1.53
2018-09-01T21:57:28.918Z,1.50
2018-09-01T21:59:58.609Z,1.43
2018-09-01T22:02:28.136Z,2.90
2018-09-01T22:05:02.725Z,1.90
2018-09-01T22:07:32.112Z,3.03
2018-09-01T22:10:01.596Z,2.60
2018-09-01T22:12:31.082Z,1.73
2018-09-01T22:15:00.606Z,2.13
2018-09-01T22:17:30.087Z,2.63
2018-09-01T22:19:59.997Z,1.97
2018-09-01T22:22:29.534Z,1.50
2018-09-01T22:24:59.102Z,1.67
2018-09-01T22:27:28.525Z,1.33
2018-09-01T22:29:58.524Z,2.40
2018-09-01T22:32:28.145Z,1.37
2018-09-01T22:34:57.748Z,1.67
2018-09-01T22:37:27.381Z,1.37
2018-09-01T22:39:57.639Z,2.53
2018-09-01T22:42:26.972Z,3.00
2018-09-01T22:44:56.464Z,1.97
2018-09-01T22:47:28.708Z,1.33
2018-09-01T22:49:58.326Z,1.67
2018-09-01T22:52:27.883Z,1.80
2018-09-01T22:54:57.387Z,1.50
2018-09-01T22:57:27.250Z,2.27
2018-09-01T22:59:57.321Z,2.07
2018-09-01T23:02:26.642Z,2.30
2018-09-01T23:04:56.211Z,1.80
2018-09-01T23:07:25.590Z,1.63
2018-09-01T23:09:55.009Z,1.93
2018-09-01T23:12:24.413Z,1.30
2018-09-01T23:14:53.982Z,1.53
2018-09-01T23:17:23.255Z,1.70
2018-09-01T23:19:52.651Z,2.30
2018-09-01T23:22:22.237Z,2.67
2018-09-01T23:24:51.669Z,2.37
2018-09-01T23:27:21.485Z,1.60
2018-09-01T23:29:51.027Z,2.20
2018-09-01T23:32:20.559Z,1.90
2018-09-01T23:34:50.219Z,1.50
2018-09-01T23:37:19.716Z,1.30
2018-09-01T23:39:49.280Z,2.00
2018-09-01T23:42:18.971Z,1.50
2018-09-01T23:44:48.344Z,2.87
2018-09-01T23:47:18.646Z,2.03
2018-09-01T23:49:47.853Z,1.50
2018-09-01T23:52:17.297Z,1.67
2018-09-01T23:54:46.857Z,1.50
2018-09-01T23:57:16.392Z,1.67
2018-09-01T23:59:46.326Z,1.53
